Chantal — A8WQ3 — position and weather

sailwx.info

Track history (hours):
 
Tides and Currents Weather Stations Pressure Air Temp Water Temp Dewpoint Dewpoint Depression Visibility Wind Speed Wind Dir Waves Ship Positions

Chantal

Last reported at 2014-Oct-27 07:08 UTC. Time now 2014-Nov-27 20:52 UTC.
Position N 29°42' W 089°58'.
Warning: this ship's position is 31 days out of date.

Length 228 m; draft 9.5 m.

Type: Tanker. MMSI: 636014805.

Date/timePositionNaut miles runAvg speedWind from/ knotsBaromVisibWave heightAir tempDewpointWater temp
2014-Oct-27 07:08N 29°42' W 089°58'1112.7
2014-Oct-27 06:14N 29°53' W 089°58'5 5.9
2014-Oct-27 05:24N 29°57' W 090°01'7 8.5
2014-Oct-27 04:33N 29°57' W 090°09'13 1.0
2014-Oct-26 14:33N 29°60' W 090°24'2 0.1
2014-Oct-25 12:11N 29°60' W 090°27'0 0.0
2014-Oct-25 11:23N 29°60' W 090°27'0 0.0
2014-Oct-25 10:29N 29°60' W 090°27'0 0.0
2014-Oct-25 08:17N 29°60' W 090°27'0 0.0
2014-Oct-25 07:32N 29°60' W 090°27'0 0.0
2014-Oct-25 06:29N 29°60' W 090°27'0 0.0
2014-Oct-24 15:08N 29°60' W 090°27'0 0.0
2014-Oct-24 14:23N 29°60' W 090°27'0 0.0
2014-Oct-24 13:32N 29°60' W 090°27'0 0.0
2014-Oct-24 12:32N 29°60' W 090°27'0 0.0
2014-Oct-24 11:32N 29°60' W 090°27'0 0.0
2014-Oct-24 10:23N 29°60' W 090°27'0 0.0
2014-Oct-24 09:29N 29°60' W 090°27'0 0.0
2014-Oct-24 08:32N 29°60' W 090°27'0 0.0
2014-Oct-24 06:26N 29°60' W 090°27'0 0.0
2014-Oct-23 14:08N 29°60' W 090°27'0 0.0
2014-Oct-23 08:26N 29°60' W 090°27'0 0.0
2014-Oct-22 13:32N 29°60' W 090°27'0 0.0
2014-Oct-22 12:17N 29°60' W 090°27'  
2014-Oct-20 06:27N 29°60' W 090°25'0 0.4
2014-Oct-20 05:33N 29°59' W 090°24'  
Track history (hours):
 
Tides and Currents Weather Stations Pressure Air Temp Water Temp Dewpoint Dewpoint Depression Visibility Wind Speed Wind Dir Waves Ship Positions

Chantal

Last reported at 2014-Oct-27 07:08 UTC. Time now 2014-Nov-27 20:52 UTC.
Position N 29°42' W 089°58'.
Warning: this ship's position is 31 days out of date.

Length 228 m; draft 9.5 m.

Type: Tanker. MMSI: 636014805.

Date/timePositionNaut miles runAvg speedWind from/ knotsBaromVisibWave heightAir tempDewpointWater temp
2014-Oct-27 07:08N 29°42' W 089°58'1112.7
2014-Oct-27 06:14N 29°53' W 089°58'5 5.9
2014-Oct-27 05:24N 29°57' W 090°01'7 8.5
2014-Oct-27 04:33N 29°57' W 090°09'13 1.0
2014-Oct-26 14:33N 29°60' W 090°24'2 0.1
2014-Oct-25 12:11N 29°60' W 090°27'0 0.0
2014-Oct-25 11:23N 29°60' W 090°27'0 0.0
2014-Oct-25 10:29N 29°60' W 090°27'0 0.0
2014-Oct-25 08:17N 29°60' W 090°27'0 0.0
2014-Oct-25 07:32N 29°60' W 090°27'0 0.0
2014-Oct-25 06:29N 29°60' W 090°27'0 0.0
2014-Oct-24 15:08N 29°60' W 090°27'0 0.0
2014-Oct-24 14:23N 29°60' W 090°27'0 0.0
2014-Oct-24 13:32N 29°60' W 090°27'0 0.0
2014-Oct-24 12:32N 29°60' W 090°27'0 0.0
2014-Oct-24 11:32N 29°60' W 090°27'0 0.0
2014-Oct-24 10:23N 29°60' W 090°27'0 0.0
2014-Oct-24 09:29N 29°60' W 090°27'0 0.0
2014-Oct-24 08:32N 29°60' W 090°27'0 0.0
2014-Oct-24 06:26N 29°60' W 090°27'0 0.0
2014-Oct-23 14:08N 29°60' W 090°27'0 0.0
2014-Oct-23 08:26N 29°60' W 090°27'0 0.0
2014-Oct-22 13:32N 29°60' W 090°27'0 0.0
2014-Oct-22 12:17N 29°60' W 090°27'  
2014-Oct-20 06:27N 29°60' W 090°25'0 0.4
2014-Oct-20 05:33N 29°59' W 090°24'  

Dump ship's entire track history